Time;durP1;ratioP1;P1;durP2;ratioP2;P2;SDS_P1;SDS_P2;PMS_P1;PMS_P2;Temp;Humidity;BMP_temperature;BMP_pressure;BME280_temperature;BME280_humidity;BME280_pressure;Samples;Min_cycle;Max_cycle;Signal;HPM_P1;HPM_P2
2022/12/11 00:02:19;;;;;;;18.53;12.50;;;1.30;1.00;;;;;;5029653;28;20314;-68
2022/12/11 00:04:45;;;;;;;16.80;11.13;;;1.10;1.00;;;;;;5021548;28;20435;-67
2022/12/11 00:07:11;;;;;;;17.07;13.43;;;1.10;1.00;;;;;;5010493;28;20418;-68
2022/12/11 00:09:37;;;;;;;20.17;13.10;;;1.10;1.00;;;;;;5010670;28;20527;-66
2022/12/11 00:12:04;;;;;;;16.07;11.50;;;1.30;1.00;;;;;;5025573;28;20186;-65
2022/12/11 00:14:30;;;;;;;21.77;12.93;;;1.50;1.00;;;;;;5026637;28;20512;-64
2022/12/11 00:16:56;;;;;;;16.90;11.50;;;1.50;1.00;;;;;;5024014;28;20434;-64
2022/12/11 00:19:22;;;;;;;17.70;12.27;;;1.30;1.00;;;;;;5012878;28;20780;-65
2022/12/11 00:21:48;;;;;;;18.50;12.30;;;1.60;1.00;;;;;;5020070;28;20431;-68
2022/12/11 00:24:13;;;;;;;18.07;11.77;;;2.00;1.00;;;;;;5019495;28;20258;-66
2022/12/11 00:26:39;;;;;;;21.00;13.57;;;2.10;1.00;;;;;;5029982;28;20171;-65
2022/12/11 00:29:07;;;;;;;20.47;12.50;;;2.20;99.90;;;;;;5024959;28;20663;-64
2022/12/11 00:31:33;;;;;;;16.70;13.63;;;2.30;99.90;;;;;;5020121;28;20188;-67
2022/12/11 00:34:00;;;;;;;16.80;13.10;;;2.30;99.90;;;;;;5016734;28;20454;-66
2022/12/11 00:36:26;;;;;;;18.20;13.07;;;2.40;99.90;;;;;;5022967;28;20430;-65
2022/12/11 00:38:52;;;;;;;17.50;12.13;;;2.40;99.90;;;;;;5028424;28;20495;-67
2022/12/11 00:41:19;;;;;;;21.50;12.97;;;2.40;99.90;;;;;;5021024;28;20826;-64
2022/12/11 00:43:45;;;;;;;18.37;12.97;;;2.50;99.90;;;;;;5024677;28;20458;-67
2022/12/11 00:46:11;;;;;;;19.43;12.30;;;2.40;99.90;;;;;;5021448;28;20434;-64
2022/12/11 00:48:37;;;;;;;16.80;12.23;;;2.50;99.90;;;;;;5018718;28;20437;-65
2022/12/11 00:51:03;;;;;;;18.10;11.97;;;2.50;99.90;;;;;;5020717;28;20179;-66
2022/12/11 00:53:29;;;;;;;18.60;13.30;;;2.50;99.90;;;;;;5029426;28;20556;-67
2022/12/11 00:55:54;;;;;;;19.30;13.50;;;2.50;99.90;;;;;;5017965;28;20246;-66
2022/12/11 00:58:20;;;;;;;17.63;13.47;;;2.40;99.90;;;;;;5030493;28;20403;-67
2022/12/11 01:00:47;;;;;;;17.90;12.97;;;2.40;99.90;;;;;;5022267;28;20676;-64
2022/12/11 01:03:13;;;;;;;15.87;11.83;;;2.30;99.90;;;;;;5021429;28;20499;-66
2022/12/11 01:05:39;;;;;;;17.33;11.77;;;2.30;99.90;;;;;;5022919;28;20432;-66
2022/12/11 01:08:05;;;;;;;20.07;13.47;;;2.30;99.90;;;;;;5021716;28;20509;-65
2022/12/11 01:10:32;;;;;;;20.13;12.43;;;2.30;99.90;;;;;;5018309;28;20184;-64
2022/12/11 01:13:05;;;;;;;22.60;14.10;;;2.30;99.90;;;;;;5024120;28;20540;-65
2022/12/11 01:15:34;;;;;;;24.27;13.33;;;2.30;99.90;;;;;;5028095;28;20430;-63
2022/12/11 01:18:00;;;;;;;22.77;13.57;;;2.30;99.90;;;;;;5023253;28;20735;-64
2022/12/11 01:20:27;;;;;;;17.43;12.20;;;2.30;99.90;;;;;;5021976;28;20485;-65
2022/12/11 01:22:54;;;;;;;18.13;12.80;;;2.40;99.90;;;;;;5021271;28;20301;-65
2022/12/11 01:25:20;;;;;;;18.10;12.30;;;2.30;99.90;;;;;;5021961;28;20522;-65
2022/12/11 01:27:48;;;;;;;18.50;12.83;;;2.20;99.90;;;;;;5027171;28;20843;-65
2022/12/11 01:30:14;;;;;;;30.23;14.00;;;2.20;99.90;;;;;;5021232;28;20498;-64
2022/12/11 01:32:40;;;;;;;20.67;12.60;;;2.30;99.90;;;;;;5028525;28;20426;-66
2022/12/11 01:35:06;;;;;;;22.93;12.70;;;2.50;99.90;;;;;;5020982;28;20200;-65
2022/12/11 01:37:32;;;;;;;17.93;13.13;;;2.60;99.90;;;;;;5034427;28;20180;-65
2022/12/11 01:39:59;;;;;;;17.47;12.00;;;2.60;99.90;;;;;;5029114;28;20980;-65
2022/12/11 01:42:27;;;;;;;16.23;11.90;;;2.60;99.90;;;;;;5022357;28;20431;-61
2022/12/11 01:45:14;;;;;;;18.00;12.03;;;2.60;99.90;;;;;;5016034;28;20540;-66
2022/12/11 01:47:40;;;;;;;20.77;12.70;;;2.50;99.90;;;;;;5019523;28;20462;-65
2022/12/11 01:50:06;;;;;;;17.57;13.07;;;2.50;99.90;;;;;;5018977;28;20466;-62
2022/12/11 01:52:32;;;;;;;18.50;11.50;;;2.60;99.90;;;;;;5030491;28;20188;-66
2022/12/11 01:54:58;;;;;;;16.53;12.30;;;2.60;99.90;;;;;;5030349;28;20523;-66
2022/12/11 01:57:24;;;;;;;17.23;12.47;;;2.60;99.90;;;;;;5012326;28;20411;-66
2022/12/11 01:59:49;;;;;;;18.90;13.00;;;2.50;99.90;;;;;;5012814;28;20447;-65
2022/12/11 02:02:28;;;;;;;19.83;11.73;;;2.50;99.90;;;;;;5012359;28;20196;-65
2022/12/11 02:04:53;;;;;;;23.77;13.23;;;2.50;99.90;;;;;;5012389;28;20191;-64
2022/12/11 02:07:19;;;;;;;19.67;12.80;;;2.60;99.90;;;;;;5015612;28;20403;-66
2022/12/11 02:09:46;;;;;;;23.13;13.40;;;2.50;99.90;;;;;;5031809;28;20350;-62
2022/12/11 02:12:36;;;;;;;19.60;12.63;;;2.50;99.90;;;;;;5031354;28;20246;-66
2022/12/11 02:15:24;;;;;;;19.97;11.80;;;2.40;99.90;;;;;;5031895;28;20429;-67
2022/12/11 02:18:28;;;;;;;17.93;12.67;;;2.50;99.90;;;;;;5031771;28;20914;-65
2022/12/11 02:21:25;;;;;;;25.50;15.07;;;2.40;99.90;;;;;;5021424;28;20978;-67
2022/12/11 02:24:10;;;;;;;25.30;15.03;;;2.40;99.90;;;;;;5019226;28;20465;-66
2022/12/11 02:26:57;;;;;;;17.73;13.50;;;2.40;99.90;;;;;;5020876;28;20514;-67
2022/12/11 02:29:34;;;;;;;20.13;13.33;;;2.40;99.90;;;;;;5023372;28;20430;-66
2022/12/11 02:32:17;;;;;;;17.80;12.40;;;2.50;99.90;;;;;;5018242;28;20497;-67
2022/12/11 02:34:58;;;;;;;16.50;11.20;;;2.50;99.90;;;;;;5018342;28;20452;-66
2022/12/11 02:37:28;;;;;;;17.63;12.37;;;2.50;99.90;;;;;;5024845;28;20523;-66
2022/12/11 02:39:56;;;;;;;22.53;12.97;;;2.30;99.90;;;;;;5021380;28;20455;-65
2022/12/11 02:42:25;;;;;;;18.00;11.37;;;2.20;99.90;;;;;;5018225;28;20466;-66
2022/12/11 02:44:53;;;;;;;16.03;10.57;;;2.30;99.90;;;;;;5020809;28;20473;-65
2022/12/11 02:47:20;;;;;;;20.60;12.27;;;2.40;99.90;;;;;;5025807;28;20422;-65
2022/12/11 02:49:49;;;;;;;19.10;12.50;;;2.50;99.90;;;;;;5025939;28;20836;-64
2022/12/11 02:52:19;;;;;;;19.93;12.33;;;2.50;99.90;;;;;;5020938;28;20485;-64
2022/12/11 02:54:46;;;;;;;17.13;12.93;;;2.50;99.90;;;;;;5018619;28;20490;-67
2022/12/11 02:57:34;;;;;;;18.23;10.93;;;2.50;99.90;;;;;;5022438;28;20479;-66
2022/12/11 03:00:00;;;;;;;15.33;10.80;;;2.60;99.90;;;;;;5027942;28;20516;-67
2022/12/11 03:02:26;;;;;;;18.00;12.03;;;2.60;99.90;;;;;;5018304;28;20534;-66
2022/12/11 03:04:52;;;;;;;16.77;11.23;;;2.50;99.90;;;;;;5023995;28;20211;-65
2022/12/11 03:07:25;;;;;;;18.63;10.80;;;2.50;99.90;;;;;;5022370;28;20221;-67
2022/12/11 03:09:51;;;;;;;16.77;11.53;;;2.40;99.90;;;;;;5024918;28;20789;-66
2022/12/11 03:12:26;;;;;;;16.63;10.30;;;2.50;99.90;;;;;;5013798;28;20496;-65
2022/12/11 03:14:52;;;;;;;17.57;11.13;;;2.40;99.90;;;;;;5028771;28;20485;-65
2022/12/11 03:17:21;;;;;;;14.70;10.47;;;2.40;99.90;;;;;;5019810;28;20855;-65
2022/12/11 03:19:53;;;;;;;18.90;11.40;;;2.40;99.90;;;;;;5022832;28;20462;-66
2022/12/11 03:22:30;;;;;;;22.00;12.20;;;2.40;99.90;;;;;;5019330;28;20477;-66
2022/12/11 03:25:16;;;;;;;17.23;11.30;;;2.30;99.90;;;;;;5020896;28;20449;-67
2022/12/11 03:27:51;;;;;;;18.00;10.37;;;2.10;99.90;;;;;;5023299;28;20435;-65
2022/12/11 03:30:21;;;;;;;17.17;10.67;;;2.20;99.90;;;;;;5017613;28;20963;-63
2022/12/11 03:32:55;;;;;;;13.37;9.33;;;2.30;99.90;;;;;;5019697;28;20423;-64
2022/12/11 03:35:35;;;;;;;16.93;11.13;;;2.30;99.90;;;;;;5012230;28;20859;-63
2022/12/11 03:38:06;;;;;;;18.17;10.80;;;2.30;99.90;;;;;;5019968;28;20438;-65
2022/12/11 03:40:34;;;;;;;13.63;8.93;;;2.30;99.90;;;;;;5027126;28;20507;-65
2022/12/11 03:43:02;;;;;;;15.20;10.77;;;2.30;99.90;;;;;;5022830;28;20512;-64
2022/12/11 03:45:29;;;;;;;19.20;10.73;;;2.30;99.90;;;;;;5017453;28;20522;-65
2022/12/11 03:47:58;;;;;;;22.33;10.37;;;2.30;99.90;;;;;;5025143;28;20430;-63
2022/12/11 03:50:27;;;;;;;13.00;9.80;;;2.40;99.90;;;;;;5014168;28;20571;-66
2022/12/11 03:52:54;;;;;;;21.97;9.37;;;2.40;99.90;;;;;;5015979;28;20438;-65
2022/12/11 03:55:21;;;;;;;13.73;9.77;;;2.30;99.90;;;;;;5022101;28;20435;-65
2022/12/11 03:57:47;;;;;;;12.53;9.60;;;2.40;99.90;;;;;;5030680;28;20418;-64
2022/12/11 04:00:16;;;;;;;20.03;9.50;;;2.30;99.90;;;;;;5029717;28;20499;-65
2022/12/11 04:02:42;;;;;;;13.70;10.03;;;2.40;99.90;;;;;;5030093;28;20939;-66
2022/12/11 04:05:08;;;;;;;14.93;9.53;;;2.40;99.90;;;;;;5030096;28;20426;-66
2022/12/11 04:07:34;;;;;;;14.67;9.47;;;2.40;99.90;;;;;;5017470;28;20407;-66
2022/12/11 04:10:00;;;;;;;13.07;10.07;;;2.50;99.90;;;;;;5010330;28;20434;-66
2022/12/11 04:12:26;;;;;;;14.73;10.30;;;2.40;99.90;;;;;;5010397;28;20415;-65
2022/12/11 04:15:01;;;;;;;14.20;9.50;;;2.40;99.90;;;;;;5014140;28;20445;-65
2022/12/11 04:25:40;;;;;;;13.00;8.57;;;2.30;99.90;;;;;;5015624;28;20492;-66
2022/12/11 04:28:06;;;;;;;16.80;10.40;;;2.30;99.90;;;;;;5029486;28;20426;-65
2022/12/11 04:30:32;;;;;;;21.00;10.50;;;2.30;99.90;;;;;;5028253;28;20541;-65
2022/12/11 04:32:57;;;;;;;12.80;8.93;;;2.40;99.90;;;;;;5026278;28;20175;-65
2022/12/11 04:35:23;;;;;;;10.73;8.90;;;2.40;99.90;;;;;;5021272;28;20180;-63
2022/12/11 04:37:49;;;;;;;12.27;10.27;;;2.40;99.90;;;;;;5022885;28;20315;-65
2022/12/11 04:40:16;;;;;;;14.87;9.53;;;2.30;99.90;;;;;;5023796;28;20338;-66
2022/12/11 04:42:42;;;;;;;12.40;9.50;;;2.20;99.90;;;;;;5027393;28;20549;-65
2022/12/11 04:45:09;;;;;;;13.47;9.63;;;2.20;99.90;;;;;;5026396;28;20442;-65
2022/12/11 04:47:36;;;;;;;14.17;10.50;;;2.20;99.90;;;;;;5021381;28;21013;-65
2022/12/11 04:50:03;;;;;;;13.40;9.10;;;2.20;99.90;;;;;;5022724;28;20885;-65
2022/12/11 04:52:29;;;;;;;13.20;9.60;;;2.10;99.90;;;;;;5015434;28;20439;-65
2022/12/11 04:54:56;;;;;;;12.13;9.23;;;2.20;99.90;;;;;;5025759;28;20484;-64
2022/12/11 04:57:22;;;;;;;11.27;9.47;;;2.10;99.90;;;;;;5029982;28;20438;-66
2022/12/11 04:59:47;;;;;;;14.80;9.70;;;2.10;99.90;;;;;;5024784;28;20217;-65
2022/12/11 05:02:14;;;;;;;19.20;9.13;;;2.10;99.90;;;;;;5028342;28;20180;-65
2022/12/11 05:04:40;;;;;;;14.33;10.10;;;2.00;99.90;;;;;;5022129;28;20199;-65
2022/12/11 05:07:06;;;;;;;15.60;9.80;;;2.00;99.90;;;;;;5028068;28;20496;-65
2022/12/11 05:09:32;;;;;;;14.90;9.03;;;2.00;99.90;;;;;;5031174;28;20519;-65
2022/12/11 05:11:57;;;;;;;16.70;9.43;;;2.00;99.90;;;;;;5023910;28;20171;-65
2022/12/11 05:14:23;;;;;;;21.20;11.00;;;2.00;99.90;;;;;;5024471;28;20546;-64
2022/12/11 05:16:49;;;;;;;13.57;9.60;;;1.90;99.90;;;;;;5016650;28;20181;-64
2022/12/11 05:19:14;;;;;;;17.30;10.40;;;1.90;99.90;;;;;;5022232;28;20262;-66
2022/12/11 05:21:40;;;;;;;14.00;9.93;;;1.90;99.90;;;;;;5019037;28;20258;-64
2022/12/11 05:24:06;;;;;;;15.37;9.33;;;1.80;99.90;;;;;;5026042;28;20274;-64
2022/12/11 05:26:32;;;;;;;14.37;9.53;;;1.70;99.90;;;;;;5019980;28;20196;-64
2022/12/11 05:28:57;;;;;;;13.30;9.00;;;1.70;99.90;;;;;;5020714;28;20548;-63
2022/12/11 05:31:26;;;;;;;15.87;9.73;;;1.60;99.90;;;;;;5030240;28;20192;-64
2022/12/11 05:33:52;;;;;;;13.50;9.57;;;1.50;99.90;;;;;;5023820;28;20207;-64
2022/12/11 05:36:27;;;;;;;14.77;9.87;;;1.50;99.90;;;;;;5017824;28;20807;-64
2022/12/11 05:38:54;;;;;;;11.10;7.60;;;1.60;99.90;;;;;;5023479;28;20937;-65
2022/12/11 05:41:22;;;;;;;17.57;10.40;;;1.50;99.90;;;;;;5012924;28;20853;-65
2022/12/11 05:43:48;;;;;;;16.37;8.93;;;1.40;99.90;;;;;;5025624;28;20453;-65
2022/12/11 05:46:32;;;;;;;14.03;9.27;;;1.40;99.90;;;;;;5024386;28;20928;-66
2022/12/11 05:49:00;;;;;;;22.30;9.90;;;1.40;99.90;;;;;;5015956;28;20176;-64
2022/12/11 05:51:27;;;;;;;17.40;9.40;;;1.40;99.90;;;;;;5031707;28;20544;-65
2022/12/11 05:53:54;;;;;;;12.13;8.07;;;1.40;99.90;;;;;;5018843;28;20451;-66
2022/12/11 05:56:25;;;;;;;14.20;8.37;;;1.40;99.90;;;;;;5011945;28;20414;-64
2022/12/11 05:58:51;;;;;;;14.60;8.70;;;1.50;99.90;;;;;;5012339;28;20410;-65
2022/12/11 06:01:40;;;;;;;19.80;9.43;;;1.50;99.90;;;;;;5011395;28;20561;-66
2022/12/11 06:04:08;;;;;;;11.83;8.10;;;1.50;99.90;;;;;;5012355;28;20419;-65
2022/12/11 06:06:34;;;;;;;10.90;7.97;;;1.40;99.90;;;;;;5011886;28;20419;-65
2022/12/11 06:09:00;;;;;;;9.77;7.50;;;1.40;99.90;;;;;;5010662;28;20420;-65
2022/12/11 06:11:28;;;;;;;11.77;8.67;;;1.30;99.90;;;;;;5011189;28;20440;-64
2022/12/11 06:13:54;;;;;;;21.40;8.77;;;1.30;99.90;;;;;;5012196;28;20435;-65
2022/12/11 06:16:20;;;;;;;12.80;7.53;;;1.30;99.90;;;;;;5011713;28;20410;-64
2022/12/11 06:18:46;;;;;;;13.60;8.87;;;1.30;99.90;;;;;;5013628;28;20415;-65
2022/12/11 06:21:27;;;;;;;20.23;8.60;;;1.30;99.90;;;;;;5026504;28;20477;-64
2022/12/11 06:23:54;;;;;;;16.20;9.07;;;1.10;99.90;;;;;;5022633;28;20523;-65
2022/12/11 06:26:20;;;;;;;9.80;7.70;;;1.00;99.90;;;;;;5024178;28;20445;-65
2022/12/11 06:28:47;;;;;;;21.87;9.10;;;0.90;99.90;;;;;;5017855;28;20434;-64
2022/12/11 06:31:13;;;;;;;39.20;9.80;;;0.90;99.90;;;;;;5026136;28;20924;-65
2022/12/11 06:33:39;;;;;;;29.20;9.20;;;0.80;99.90;;;;;;5024113;28;20541;-64
2022/12/11 06:36:08;;;;;;;25.03;9.00;;;0.80;99.90;;;;;;5023753;28;20802;-62
2022/12/11 06:38:34;;;;;;;25.60;9.70;;;0.80;99.90;;;;;;5014046;28;20763;-65
2022/12/11 06:41:03;;;;;;;18.40;9.07;;;0.90;99.90;;;;;;5019119;28;20469;-64
2022/12/11 06:43:30;;;;;;;10.00;7.27;;;1.00;99.90;;;;;;5015708;28;20489;-65
2022/12/11 06:45:56;;;;;;;12.97;7.73;;;1.00;99.90;;;;;;5021208;28;20569;-64
2022/12/11 06:48:21;;;;;;;24.33;8.53;;;0.90;99.90;;;;;;5023047;28;20880;-64
2022/12/11 06:50:47;;;;;;;18.77;8.00;;;1.00;99.90;;;;;;5018712;28;20208;-65
2022/12/11 06:53:14;;;;;;;10.60;7.50;;;0.90;99.90;;;;;;5019959;28;20207;-64
2022/12/11 06:55:40;;;;;;;11.47;8.17;;;0.90;99.90;;;;;;5026763;28;20187;-64
2022/12/11 06:58:07;;;;;;;10.60;8.07;;;0.90;99.90;;;;;;5023809;28;20499;-65
2022/12/11 07:00:35;;;;;;;9.90;7.77;;;1.00;99.90;;;;;;5022102;28;20467;-63
2022/12/11 07:03:01;;;;;;;14.10;8.50;;;1.00;99.90;;;;;;5020278;28;20555;-61
2022/12/11 07:05:26;;;;;;;18.57;8.07;;;1.00;99.90;;;;;;5019600;28;20971;-64
2022/12/11 07:07:53;;;;;;;11.47;7.30;;;1.00;99.90;;;;;;5025909;28;20263;-62
2022/12/11 07:10:19;;;;;;;8.57;7.50;;;1.00;99.90;;;;;;5016952;28;20431;-63
2022/12/11 07:12:45;;;;;;;12.57;8.43;;;0.90;99.90;;;;;;5020981;28;20791;-65
2022/12/11 07:15:11;;;;;;;17.67;8.03;;;0.90;99.90;;;;;;5017183;28;20446;-66
2022/12/11 07:17:37;;;;;;;13.50;7.87;;;1.00;99.90;;;;;;5015815;28;20180;-66
2022/12/11 07:20:03;;;;;;;11.27;8.23;;;1.20;99.90;;;;;;5019407;28;21024;-64
2022/12/11 07:22:29;;;;;;;10.83;7.87;;;2.00;99.90;;;;;;5025263;28;20561;-65
2022/12/11 07:24:55;;;;;;;14.83;7.37;;;3.10;99.90;;;;;;5023651;28;20438;-67
2022/12/11 07:27:20;;;;;;;77.93;13.20;;;4.10;99.90;;;;;;5023942;28;20184;-64
2022/12/11 07:29:46;;;;;;;34.07;10.00;;;5.20;99.90;;;;;;5022450;28;20526;-65
2022/12/11 07:32:12;;;;;;;50.07;11.67;;;5.80;99.90;;;;;;5013873;28;20255;-67
2022/12/11 07:34:37;;;;;;;28.03;9.40;;;6.50;99.90;;;;;;5025407;28;20258;-65
2022/12/11 07:37:03;;;;;;;64.70;13.03;;;7.00;99.90;;;;;;5027939;28;20633;-67
2022/12/11 07:39:29;;;;;;;117.97;19.67;;;7.50;99.90;;;;;;5028704;28;20179;-65
2022/12/11 07:41:55;;;;;;;33.30;10.27;;;8.20;99.90;;;;;;5026263;28;20207;-65
2022/12/11 07:44:20;;;;;;;14.70;9.17;;;8.60;99.90;;;;;;5018194;28;20183;-65
2022/12/11 07:46:46;;;;;;;20.03;9.37;;;9.10;99.90;;;;;;5029200;28;20636;-66
2022/12/11 07:49:12;;;;;;;13.43;10.50;;;9.40;99.90;;;;;;5028702;28;20610;-65
2022/12/11 07:51:38;;;;;;;11.17;9.27;;;9.60;99.90;;;;;;5026509;28;20180;-64
2022/12/11 07:54:06;;;;;;;14.60;8.50;;;10.10;99.90;;;;;;5027428;28;20939;-68
2022/12/11 07:56:33;;;;;;;9.40;8.37;;;10.50;99.90;;;;;;5026630;28;20464;-68
2022/12/11 07:59:00;;;;;;;16.10;9.40;;;10.90;99.90;;;;;;5024235;28;20431;-66
2022/12/11 08:01:28;;;;;;;26.17;9.90;;;11.30;99.90;;;;;;5026870;28;20584;-68
2022/12/11 08:03:54;;;;;;;10.17;8.80;;;11.10;99.90;;;;;;5026658;28;20470;-67
2022/12/11 08:06:28;;;;;;;10.70;9.57;;;11.50;99.90;;;;;;5028393;28;20492;-68
2022/12/11 08:08:55;;;;;;;10.50;9.23;;;11.70;99.90;;;;;;5028447;28;20938;-67
2022/12/11 08:11:21;;;;;;;17.60;10.23;;;12.40;99.90;;;;;;5026669;28;20456;-67
2022/12/11 08:13:47;;;;;;;12.33;9.50;;;12.40;99.90;;;;;;5027326;28;20947;-66
2022/12/11 08:16:14;;;;;;;10.27;9.20;;;12.60;99.90;;;;;;5028009;28;20191;-66
2022/12/11 08:18:41;;;;;;;11.37;10.20;;;12.40;99.90;;;;;;5028400;28;20491;-65
2022/12/11 08:21:07;;;;;;;12.33;9.87;;;12.20;99.90;;;;;;5027423;28;20476;-68
2022/12/11 08:23:34;;;;;;;25.63;10.63;;;12.80;99.90;;;;;;5025695;28;20818;-66
2022/12/11 08:26:05;;;;;;;19.20;10.83;;;12.90;99.90;;;;;;5023711;28;20446;-66
2022/12/11 08:28:31;;;;;;;18.67;10.20;;;13.30;99.90;;;;;;5037379;28;20434;-66
2022/12/11 08:30:58;;;;;;;32.40;10.93;;;13.60;99.90;;;;;;5025317;28;20434;-67
2022/12/11 08:33:24;;;;;;;23.60;10.50;;;13.90;99.90;;;;;;5028183;28;20460;-67
2022/12/11 08:35:49;;;;;;;18.53;9.27;;;14.10;99.90;;;;;;5027003;28;20526;-67
2022/12/11 08:38:15;;;;;;;10.73;9.63;;;14.40;99.90;;;;;;5028339;28;20176;-67
2022/12/11 08:40:41;;;;;;;12.33;9.60;;;14.50;99.90;;;;;;5024538;28;20200;-67
2022/12/11 08:43:07;;;;;;;10.47;9.37;;;14.60;99.90;;;;;;5024689;28;20168;-67
2022/12/11 08:45:32;;;;;;;12.17;10.97;;;15.00;99.90;;;;;;5026872;28;20250;-68
2022/12/11 08:47:59;;;;;;;10.50;9.50;;;15.00;99.90;;;;;;5027204;28;20179;-67
2022/12/11 08:50:24;;;;;;;11.97;9.27;;;14.80;99.90;;;;;;5020634;28;20184;-68
2022/12/11 08:52:50;;;;;;;9.90;8.90;;;15.10;99.90;;;;;;5027834;28;21154;-69
2022/12/11 08:55:16;;;;;;;13.80;9.27;;;15.10;99.90;;;;;;5028318;28;20698;-66
2022/12/11 08:57:42;;;;;;;14.97;9.60;;;15.30;99.90;;;;;;5024980;28;20179;-67
2022/12/11 09:00:11;;;;;;;18.30;11.07;;;15.00;99.90;;;;;;5031214;28;20290;-66
2022/12/11 09:02:37;;;;;;;13.10;10.10;;;14.90;99.90;;;;;;5029630;28;20342;-67
2022/12/11 09:05:06;;;;;;;17.53;11.27;;;15.00;99.90;;;;;;5031326;28;20587;-66
2022/12/11 09:07:32;;;;;;;42.40;14.60;;;14.90;99.90;;;;;;5031103;28;20273;-68
2022/12/11 09:09:58;;;;;;;87.73;17.73;;;15.10;99.90;;;;;;5031342;28;20493;-66
2022/12/11 09:12:24;;;;;;;54.77;18.13;;;15.10;99.90;;;;;;5030522;28;20938;-66
2022/12/11 09:14:50;;;;;;;20.97;12.87;;;15.10;99.90;;;;;;5030831;28;20690;-66
2022/12/11 09:17:15;;;;;;;42.63;12.27;;;15.10;99.90;;;;;;5030896;28;20255;-66
2022/12/11 09:19:41;;;;;;;36.03;11.10;;;14.80;99.90;;;;;;5026695;28;20175;-66
2022/12/11 09:22:09;;;;;;;71.17;15.90;;;14.10;99.90;;;;;;5030916;28;20184;-68
2022/12/11 09:24:36;;;;;;;16.90;10.80;;;13.60;99.90;;;;;;5029270;28;20211;-67
2022/12/11 09:27:02;;;;;;;30.83;12.50;;;13.00;98.90;;;;;;5032281;28;20484;-67
2022/12/11 09:29:28;;;;;;;27.13;11.43;;;12.10;95.90;;;;;;5030787;28;20834;-66
2022/12/11 09:31:54;;;;;;;31.10;12.80;;;11.30;94.10;;;;;;5030246;28;20438;-66
2022/12/11 09:34:20;;;;;;;46.70;14.60;;;11.10;93.10;;;;;;5029041;28;20582;-66
2022/12/11 09:36:46;;;;;;;25.53;10.43;;;10.90;92.40;;;;;;5023324;28;20199;-66
2022/12/11 09:39:14;;;;;;;13.37;9.60;;;9.80;88.50;;;;;;5029701;28;20462;-66
2022/12/11 09:41:49;;;;;;;67.93;17.27;;;8.90;82.10;;;;;;5028484;28;20281;-65
2022/12/11 09:44:33;;;;;;;14.67;10.40;;;8.50;80.60;;;;;;5029540;28;21108;-66
2022/12/11 09:46:59;;;;;;;14.13;10.27;;;8.30;78.60;;;;;;5030350;28;20508;-65
2022/12/11 09:49:38;;;;;;;13.17;9.67;;;8.40;79.90;;;;;;5029330;28;20927;-66
2022/12/11 09:52:10;;;;;;;10.97;8.73;;;8.40;80.30;;;;;;5029242;28;20791;-66
2022/12/11 09:54:41;;;;;;;24.60;10.77;;;8.70;82.40;;;;;;5030453;28;20497;-65
2022/12/11 09:57:24;;;;;;;26.40;11.17;;;8.70;81.60;;;;;;5028486;28;20625;-65
2022/12/11 10:00:15;;;;;;;9.93;7.93;;;8.40;78.10;;;;;;5026848;28;20604;-66
2022/12/11 10:03:07;;;;;;;19.83;11.30;;;7.10;68.30;;;;;;5027757;28;20445;-66
2022/12/11 10:05:54;;;;;;;12.73;9.97;;;7.10;67.80;;;;;;5028006;28;20450;-65
2022/12/11 10:08:26;;;;;;;21.70;10.33;;;7.30;69.90;;;;;;5023530;28;20492;-67
2022/12/11 10:11:00;;;;;;;11.67;9.07;;;7.30;71.00;;;;;;5029085;28;20434;-72
2022/12/11 10:14:01;;;;;;;15.23;10.10;;;7.40;70.10;;;;;;5024570;28;20457;-66
2022/12/11 10:16:44;;;;;;;18.10;10.30;;;7.40;71.80;;;;;;5016398;28;20450;-65
2022/12/11 10:19:23;;;;;;;13.17;9.77;;;7.20;68.60;;;;;;5028404;28;20430;-65
2022/12/11 10:21:51;;;;;;;19.37;10.07;;;6.80;65.30;;;;;;5025370;28;20458;-67
2022/12/11 10:24:24;;;;;;;25.83;11.17;;;6.80;66.10;;;;;;5030356;28;20549;-66
2022/12/11 10:26:54;;;;;;;13.40;9.67;;;6.80;67.10;;;;;;5030337;28;20422;-66
2022/12/11 10:29:21;;;;;;;12.67;9.63;;;6.70;66.50;;;;;;5029419;28;20462;-65
2022/12/11 10:31:55;;;;;;;11.40;8.90;;;6.90;68.30;;;;;;5030074;28;20441;-65
2022/12/11 10:34:34;;;;;;;13.23;9.47;;;6.80;68.90;;;;;;5022880;28;20484;-66
2022/12/11 10:37:00;;;;;;;13.77;9.63;;;6.40;64.20;;;;;;5028484;28;20542;-66
2022/12/11 10:39:26;;;;;;;10.37;8.80;;;6.50;65.60;;;;;;5027300;28;20495;-66
2022/12/11 10:41:53;;;;;;;17.60;11.20;;;6.60;67.50;;;;;;5024203;28;20797;-64
2022/12/11 10:44:25;;;;;;;14.17;10.10;;;6.40;67.60;;;;;;5026727;28;20240;-66
2022/12/11 10:47:10;;;;;;;23.13;11.07;;;6.50;68.60;;;;;;5018418;28;20942;-65
2022/12/11 10:49:38;;;;;;;18.50;12.27;;;6.30;65.70;;;;;;5020997;28;20434;-65
2022/12/11 10:52:17;;;;;;;15.90;11.30;;;6.20;66.10;;;;;;5031558;28;20533;-66
2022/12/11 10:54:47;;;;;;;12.03;10.00;;;6.30;68.00;;;;;;5016361;28;20458;-68
2022/12/11 10:57:14;;;;;;;12.67;10.30;;;6.20;67.20;;;;;;5026685;28;20513;-66
2022/12/11 10:59:46;;;;;;;15.87;9.57;;;6.20;67.20;;;;;;5026423;28;20434;-67
2022/12/11 11:02:31;;;;;;;10.60;8.60;;;6.10;67.00;;;;;;5026284;28;20520;-66
2022/12/11 11:04:59;;;;;;;14.60;9.70;;;6.20;67.90;;;;;;5026361;28;20448;-65
2022/12/11 11:07:28;;;;;;;12.47;10.10;;;6.10;68.10;;;;;;5018962;28;20441;-66
2022/12/11 11:10:15;;;;;;;22.43;9.77;;;6.00;65.90;;;;;;5020529;28;20432;-66
2022/12/11 11:13:00;;;;;;;27.70;12.33;;;6.10;67.50;;;;;;5025687;28;20444;-65
2022/12/11 11:15:28;;;;;;;15.10;10.13;;;6.20;68.50;;;;;;5017744;28;20437;-65
2022/12/11 11:17:57;;;;;;;11.90;9.43;;;6.20;69.30;;;;;;5020352;28;20422;-67
2022/12/11 11:20:28;;;;;;;11.33;9.53;;;6.20;69.50;;;;;;5023834;28;20469;-63
2022/12/11 11:23:06;;;;;;;17.63;10.00;;;6.20;72.10;;;;;;5018959;28;20846;-64
2022/12/11 11:25:32;;;;;;;31.40;11.77;;;6.30;72.50;;;;;;5027421;28;20413;-64
2022/12/11 11:28:07;;;;;;;35.70;12.20;;;6.50;74.10;;;;;;5028112;28;20407;-66
2022/12/11 11:30:38;;;;;;;27.07;11.80;;;6.60;74.30;;;;;;5019230;28;20441;-65
2022/12/11 11:33:18;;;;;;;34.37;14.00;;;6.60;75.40;;;;;;5026393;28;20515;-66
2022/12/11 11:35:55;;;;;;;38.93;13.33;;;6.90;78.90;;;;;;5021840;28;20427;-65
2022/12/11 11:38:43;;;;;;;35.27;11.80;;;6.90;77.00;;;;;;5019573;28;20440;-63
2022/12/11 11:41:18;;;;;;;24.60;10.43;;;6.70;75.40;;;;;;5017638;28;20517;-68
2022/12/11 11:44:01;;;;;;;40.90;11.70;;;6.70;75.70;;;;;;5017609;28;20450;-67
2022/12/11 11:47:07;;;;;;;67.40;17.17;;;6.60;75.20;;;;;;5019874;28;20470;-67
2022/12/11 11:49:54;;;;;;;153.67;24.97;;;6.70;77.30;;;;;;5025019;28;20437;-67
2022/12/11 11:52:39;;;;;;;93.27;16.73;;;6.70;77.30;;;;;;5026210;28;20432;-66
2022/12/11 11:55:19;;;;;;;99.73;19.43;;;6.70;77.00;;;;;;5026714;28;20541;-67
2022/12/11 11:57:54;;;;;;;27.70;11.10;;;6.50;76.50;;;;;;5017704;28;20964;-67
2022/12/11 12:00:25;;;;;;;47.57;14.00;;;6.40;75.30;;;;;;5022084;28;20796;-67
2022/12/11 12:02:56;;;;;;;106.83;22.37;;;6.50;77.20;;;;;;5023854;28;20426;-67
2022/12/11 12:05:34;;;;;;;92.20;22.50;;;6.30;75.70;;;;;;5016253;28;20460;-67
2022/12/11 12:08:15;;;;;;;27.67;12.23;;;6.20;76.00;;;;;;5018387;28;20939;-68
2022/12/11 12:10:58;;;;;;;50.73;13.77;;;6.30;76.40;;;;;;5023765;28;20445;-67
2022/12/11 12:13:42;;;;;;;60.27;12.90;;;6.10;75.50;;;;;;5025078;28;20486;-67
2022/12/11 12:16:20;;;;;;;25.17;11.80;;;6.10;75.80;;;;;;5022589;28;20437;-67
2022/12/11 12:18:55;;;;;;;25.00;11.00;;;6.00;73.80;;;;;;5022653;28;20854;-67
2022/12/11 12:21:34;;;;;;;20.67;10.70;;;5.90;73.90;;;;;;5020491;28;20467;-65
2022/12/11 12:24:16;;;;;;;14.90;10.10;;;5.60;71.70;;;;;;5020348;28;20454;-67
2022/12/11 12:26:55;;;;;;;15.20;9.77;;;5.50;71.50;;;;;;5024721;28;20522;-67
2022/12/11 12:29:46;;;;;;;18.83;9.90;;;5.50;71.90;;;;;;5019273;28;21167;-67
2022/12/11 12:32:17;;;;;;;12.87;9.83;;;5.40;70.70;;;;;;5025762;28;20794;-66
2022/12/11 12:35:07;;;;;;;13.50;10.17;;;5.30;70.70;;;;;;5028803;28;20473;-67
2022/12/11 12:38:00;;;;;;;18.20;10.87;;;5.60;76.40;;;;;;5028016;28;20433;-64
2022/12/11 12:40:41;;;;;;;17.90;10.23;;;5.30;70.80;;;;;;5026251;28;20553;-66
2022/12/11 12:43:18;;;;;;;31.10;10.97;;;5.20;70.70;;;;;;5031242;28;20572;-66
2022/12/11 12:46:22;;;;;;;19.23;9.60;;;5.00;71.10;;;;;;5028224;28;20517;-65
2022/12/11 12:48:50;;;;;;;17.03;9.90;;;4.90;70.70;;;;;;5030104;28;20945;-67
2022/12/11 12:51:17;;;;;;;42.90;13.10;;;4.70;69.10;;;;;;5032206;28;20422;-69
2022/12/11 12:54:02;;;;;;;32.73;11.10;;;4.80;72.10;;;;;;5032297;28;20465;-68
2022/12/11 12:56:30;;;;;;;124.37;17.70;;;4.60;71.90;;;;;;5021138;28;20430;-68
2022/12/11 12:58:56;;;;;;;33.30;12.70;;;4.90;76.30;;;;;;5027257;28;20433;-67
2022/12/11 13:01:24;;;;;;;46.60;14.00;;;5.00;75.90;;;;;;5030728;28;20772;-67
2022/12/11 13:04:03;;;;;;;18.30;9.93;;;5.00;77.50;;;;;;5025122;28;20195;-66
2022/12/11 13:06:49;;;;;;;28.60;10.87;;;4.90;77.70;;;;;;5024360;28;20429;-66